Weather reports worldwide

Advertisment
Modena, Italy (16128): temperature & dewpoint: 22.01.2020 09:00:00 - 28.01.2020 09:00:00 (CET)Modena, Italy (16128): wind speed: 22.01.2020 09:00:00 - 28.01.2020 09:00:00 (CET)Modena, Italy (16128): wind direction: 22.01.2020 09:00:00 - 28.01.2020 09:00:00 (CET)Modena, Italy (16128): reduced air pressure: 22.01.2020 09:00:00 - 28.01.2020 09:00:00 (CET)Modena, Italy (16128): precipitation: 22.01.2020 09:00:00 - 28.01.2020 09:00:00 (CET)
Date & Time tt [°C] td [°C] ff [km/h] ff [kn] dd ppp [hPa] rr [mm]
28.01.2020 09:00:00 - - - - - - -
28.01.2020 08:00:00 4,6 4,0 1 0 WNW 1010,3 0,0
28.01.2020 07:00:00 4,7 4,1 6 3 W 1010,5 0,0
28.01.2020 06:00:00 4,8 4,2 1 0 N 1010,2 0,0
28.01.2020 05:00:00 4,6 4,0 3 1 ENE 1010,9 0,0
28.01.2020 04:00:00 4,9 4,2 6 4 E 1011,6 0,0
28.01.2020 03:00:00 5,5 4,8 8 4 E 1012,9 0,0
28.01.2020 02:00:00 5,8 4,8 11 6 E 1013,4 0,0
28.01.2020 01:00:00 6,1 5,1 1 0 E 1014,4 0,0
28.01.2020 00:00:00 6,4 5,2 10 5 E 1015,1 0,0
27.01.2020 23:00:00 6,9 5,5 3 1 E 1015,7 0,0
27.01.2020 22:00:00 7,7 5,3 1 1 E 1016,4 0,0
27.01.2020 21:00:00 8,1 5,4 1 1 ESE 1017,2 0,0
27.01.2020 20:00:00 8,3 5,2 5 3 E 1017,6 0,0
27.01.2020 19:00:00 8,7 5,3 10 5 E 1017,5 0,0
27.01.2020 18:00:00 9,2 4,8 8 4 E 1018,1 0,0
27.01.2020 17:00:00 9,8 4,6 - - - 1018,3 0,0
27.01.2020 16:00:00 11,2 4,6 1 0 NNW 1018,5 0,0
27.01.2020 15:00:00 10,3 4,9 1 0 NW 1018,8 0,0
27.01.2020 14:00:00 10,0 5,0 4 2 NNW 1019,3 0,0
27.01.2020 13:00:00 - - - - - - -
27.01.2020 12:00:00 9,2 4,0 3 2 NW 1020,3 0,0
27.01.2020 11:00:00 7,2 3,6 5 3 WNW 1021,2 0,0
27.01.2020 10:00:00 6,1 3,3 0 0 WSW 1021,3 0,0
27.01.2020 09:00:00 5,0 2,4 7 4 SW 1021,4 0,0
27.01.2020 08:00:00 5,6 2,9 6 4 WSW 1021,2 0,0
27.01.2020 07:00:00 6,0 3,3 6 4 WSW 1020,7 0,0
27.01.2020 06:00:00 4,9 2,3 8 4 SSW 1020,5 0,0
27.01.2020 05:00:00 5,5 - 7 4 WSW 1020,6 -
27.01.2020 04:00:00 4,9 2,4 4 2 SSW 1020,6 0,0
27.01.2020 03:00:00 5,5 3,0 7 4 WSW 1020,9 0,0
27.01.2020 02:00:00 5,0 2,7 7 4 WSW 1021,0 0,0
27.01.2020 01:00:00 5,4 3,4 10 5 WSW 1021,0 0,0
27.01.2020 00:00:00 4,9 3,2 11 6 SW 1021,3 0,0
26.01.2020 23:00:00 5,4 4,0 8 4 WSW 1021,3 0,0
26.01.2020 22:00:00 5,7 4,7 8 4 SW 1021,4 0,0
26.01.2020 21:00:00 6,2 4,8 6 3 WSW 1021,1 0,0
26.01.2020 20:00:00 7,4 5,2 - - - 1021,2 0,0
26.01.2020 19:00:00 8,3 5,4 4 2 SSW 1020,8 0,0
26.01.2020 18:00:00 8,4 - - - - - -
26.01.2020 17:00:00 8,9 5,1 3 2 SW 1020,8 0,0
26.01.2020 16:00:00 9,1 3,9 6 3 W 1021,1 0,0
26.01.2020 15:00:00 9,4 3,6 9 5 WNW 1021,3 0,0
26.01.2020 14:00:00 8,5 4,9 8 4 NW 1021,7 0,0
26.01.2020 13:00:00 8,0 5,1 9 5 WNW 1022,3 0,0
26.01.2020 12:00:00 7,4 5,0 6 3 W 1022,9 0,0
26.01.2020 11:00:00 6,7 5,2 1 0 WNW 1023,4 0,0
26.01.2020 10:00:00 6,2 4,5 3 2 W 1023,4 0,0
26.01.2020 09:00:00 5,7 4,7 - - - 1023,3 -
26.01.2020 08:00:00 5,4 4,4 7 4 WNW 1023,1 0,0
26.01.2020 07:00:00 5,4 4,4 - - - 1022,9 0,2
26.01.2020 06:00:00 5,3 4,4 - - - 1022,8 0,0
26.01.2020 05:00:00 5,3 4,3 4 2 W 1022,8 0,0
26.01.2020 04:00:00 5,5 4,3 3 1 W 1023,1 0,0
26.01.2020 03:00:00 5,5 4,5 - - - 1023,7 0,0
26.01.2020 02:00:00 5,4 4,4 - - - 1023,6 0,0
26.01.2020 01:00:00 5,4 4,4 - - - 1023,8 0,0
26.01.2020 00:00:00 5,4 4,4 - - - 1024,2 0,0
25.01.2020 23:00:00 5,4 4,2 1 0 W 1024,3 0,0
25.01.2020 22:00:00 5,3 4,3 - - - 1024,5 0,0
25.01.2020 21:00:00 5,2 - - - - - -
25.01.2020 20:00:00 5,1 4,4 - - - 1024,7 0,0
25.01.2020 19:00:00 5,0 4,3 - - - 1024,5 0,0
25.01.2020 18:00:00 4,9 4,2 6 3 WNW 1024,5 0,0
25.01.2020 17:00:00 4,9 4,2 4 2 WNW 1024,3 0,4
25.01.2020 16:00:00 4,8 4,1 10 5 WNW 1024,6 0,4
25.01.2020 15:00:00 4,9 4,2 9 5 W 1024,9 0,0
25.01.2020 14:00:00 4,6 3,9 11 6 WNW 1025,3 0,0
25.01.2020 13:00:00 4,7 4,0 9 5 W 1025,9 0,0
25.01.2020 12:00:00 4,4 3,5 8 4 WNW 1026,5 0,2
25.01.2020 11:00:00 4,4 3,5 8 4 WNW 1026,9 0,2
25.01.2020 10:00:00 4,2 3,5 9 5 W 1026,8 0,6
25.01.2020 09:00:00 4,0 3,3 10 6 W 1026,7 0,6
25.01.2020 08:00:00 4,0 3,1 11 6 WNW 1026,3 0,2
25.01.2020 07:00:00 4,1 2,9 8 5 WNW 1026,1 0,2
25.01.2020 06:00:00 4,2 2,9 10 5 WNW 1025,7 0,2
25.01.2020 05:00:00 4,1 2,6 6 3 W 1025,9 0,4
25.01.2020 04:00:00 4,1 2,1 9 5 W 1026,2 0,0
25.01.2020 03:00:00 4,2 2,4 0 0 W 1026,7 0,2
25.01.2020 02:00:00 4,0 1,9 0 0 WNW 1027,1 0,6
25.01.2020 01:00:00 5,0 1,3 0 0 NNE 1027,1 0,0
25.01.2020 00:00:00 5,2 1,1 0 0 SSW 1027,3 0,0
24.01.2020 23:00:00 5,0 - 0 0 W 1027,4 0,0
24.01.2020 22:00:00 5,6 - 0 0 ESE - -
24.01.2020 21:00:00 5,7 0,9 0 0 E 1027,8 0,0
24.01.2020 20:00:00 5,7 0,9 0 0 NE 1027,7 0,0
24.01.2020 19:00:00 6,2 0,7 0 0 ENE 1027,4 0,0
24.01.2020 18:00:00 6,3 0,8 3 2 ENE 1027,3 0,0
24.01.2020 17:00:00 6,8 0,0 8 4 E 1027,2 0,0
24.01.2020 16:00:00 7,3 -0,2 8 5 E 1027,2 0,0
24.01.2020 15:00:00 7,9 -0,1 6 3 E 1027,2 0,0
24.01.2020 14:00:00 7,8 -0,7 1 1 ENE 1027,8 0,0
24.01.2020 13:00:00 7,8 -0,2 4 2 SE 1028,5 0,0
24.01.2020 12:00:00 7,2 0,0 0 0 NNW 1029,3 0,0
24.01.2020 11:00:00 5,5 -0,6 3 1 SW 1029,6 0,0
24.01.2020 10:00:00 4,7 -1,1 - - - 1029,4 0,0
24.01.2020 09:00:00 2,3 -1,7 6 4 SW 1029,4 0,0
24.01.2020 08:00:00 2,0 -1,8 9 5 SW 1029,1 0,0
24.01.2020 07:00:00 2,5 -1,7 7 4 SW 1028,9 0,0
24.01.2020 06:00:00 2,4 -1,6 8 4 WSW 1028,8 0,0
24.01.2020 05:00:00 2,5 -1,5 8 4 WSW 1028,7 0,0
24.01.2020 04:00:00 2,7 -1,3 8 4 WSW 1029,0 0,0
24.01.2020 03:00:00 2,3 -1,3 10 5 SW 1029,6 0,0
24.01.2020 02:00:00 2,3 -1,0 9 5 SW 1030,1 0,0
24.01.2020 01:00:00 2,5 -0,4 6 4 WSW 1030,4 0,0
24.01.2020 00:00:00 2,4 0,1 9 5 W 1031,1 0,0
23.01.2020 23:00:00 3,1 0,3 7 4 WSW 1031,2 0,0
23.01.2020 22:00:00 3,6 0,6 7 4 WSW 1031,4 0,0
23.01.2020 21:00:00 4,4 1,6 6 3 W 1031,4 0,0
23.01.2020 20:00:00 5,4 1,5 - - - 1031,3 0,0
23.01.2020 19:00:00 6,0 1,3 0 0 N 1031,1 0,0
23.01.2020 18:00:00 6,5 1,8 - - - - -
23.01.2020 17:00:00 6,9 1,6 7 4 ENE 1030,8 0,0
23.01.2020 16:00:00 7,8 1,2 2 1 ENE 1031,0 0,0
23.01.2020 15:00:00 8,4 1,1 6 3 E 1031,3 0,0
23.01.2020 14:00:00 8,1 0,8 5 3 E 1031,7 0,0
23.01.2020 13:00:00 7,1 -0,1 8 4 E 1032,7 0,0
23.01.2020 12:00:00 6,7 -0,5 5 3 ENE 1033,2 0,0
23.01.2020 11:00:00 6,1 -0,2 1 1 ESE 1033,8 0,0
23.01.2020 10:00:00 4,7 -1,3 0 0 W 1033,5 0,0
23.01.2020 09:00:00 1,3 -1,6 - - - 1033,1 0,0
23.01.2020 08:00:00 1,7 -1,4 0 0 NE 1032,3 0,0
23.01.2020 07:00:00 1,7 -1,4 0 0 NE 1031,8 0,0
23.01.2020 06:00:00 1,7 -1,6 - - - 1031,4 -
23.01.2020 05:00:00 2,8 -1,4 0 0 E 1031,4 0,0
23.01.2020 04:00:00 2,9 -1,3 - - - 1031,4 0,0
23.01.2020 03:00:00 2,7 -1,5 5 3 SSE 1031,6 0,0
23.01.2020 02:00:00 2,3 -2,6 8 4 E 1031,7 0,0
23.01.2020 01:00:00 3,0 -1,9 3 1 NE 1031,5 0,0
23.01.2020 00:00:00 5,6 -1,1 11 6 SW 1030,8 0,0
22.01.2020 23:00:00 5,8 -1,8 13 7 SW 1031,1 0,0
22.01.2020 22:00:00 6,1 -3,0 10 6 S 1031,4 0,0
22.01.2020 21:00:00 6,8 -3,2 8 4 S 1031,5 0,0
22.01.2020 20:00:00 7,1 -3,5 4 2 WNW 1031,7 0,0
22.01.2020 19:00:00 7,2 -3,4 6 4 NNW 1031,5 0,0
22.01.2020 18:00:00 - - - - - - -
22.01.2020 17:00:00 9,6 -4,7 0 0 NW 1031,4 0,0
22.01.2020 16:00:00 10,0 -4,4 1 1 NW 1032,0 0,0
22.01.2020 15:00:00 10,1 -4,7 5 3 WSW 1032,6 0,0
22.01.2020 14:00:00 8,7 -4,8 6 3 W 1033,7 0,0
22.01.2020 13:00:00 - - - - - - -
22.01.2020 12:00:00 6,5 -3,5 9 5 WNW 1036,1 0,0
22.01.2020 11:00:00 5,2 -3,4 11 6 WNW 1036,7 0,0
22.01.2020 10:00:00 3,9 -2,5 6 4 W 1037,0 0,0
22.01.2020 09:00:00 2,8 -2,5 7 4 SW 1036,9 0,0

tt = temperature
td = dewpoint
ff = wind speed
dd = wind direction
ppp = reduced air pressure
rr = precipitation

Next stations